Terminal Aerodrome Forecast
Issued by NWS

Home | Current Version | Previous Version | Text Only | Print | Product List | Glossary On
Versions: 1 2 3 4 5 6 7 8 9 10 11 12 13 14 15 16 17 18 19 20 21 22 23 24 25 26 27 28 29 30
000
FTUS41 KALY 271131
TAFPSF
TAF
KPSF 271131Z 2712/2812 00000KT 6SM BR SCT004 OVC015
      TEMPO 2712/2714 2SM BR BKN004 OVC015
     FM271400 VRB03KT P6SM BKN015 OVC025
     FM271800 16007KT P6SM SCT025 BKN035
     FM280100 15006KT 5SM BR SCT008 OVC015
     FM280800 20005KT 3SM -SHRA BR OVC008=

USA.gov is the U.S. government's official web portal to all federal, state and local government web resources and services.